createdAt,value
2022-08-31T00:02:58.176Z,1.80
2022-08-31T00:08:00.213Z,1.70
2022-08-31T00:13:02.881Z,1.80
2022-08-31T00:18:05.421Z,1.98
2022-08-31T00:23:11.235Z,1.65
2022-08-31T00:28:15.829Z,2.00
2022-08-31T00:33:18.089Z,1.90
2022-08-31T00:38:20.256Z,1.58
2022-08-31T00:43:37.624Z,1.60
2022-08-31T00:48:56.896Z,1.88
2022-08-31T00:54:00.145Z,1.60
2022-08-31T00:59:02.925Z,1.80
2022-08-31T01:04:05.484Z,1.70
2022-08-31T01:09:09.218Z,1.60
2022-08-31T01:14:12.528Z,1.90
2022-08-31T01:19:24.502Z,1.70
2022-08-31T01:24:27.649Z,1.83
2022-08-31T01:29:29.984Z,2.00
2022-08-31T01:34:33.505Z,1.70
2022-08-31T01:39:36.021Z,1.65
2022-08-31T01:44:38.138Z,1.70
2022-08-31T01:49:41.357Z,1.92
2022-08-31T01:54:43.553Z,1.42
2022-08-31T01:59:45.762Z,1.60
2022-08-31T02:05:00.807Z,1.70
2022-08-31T02:10:04.623Z,1.52
2022-08-31T02:15:07.948Z,1.80
2022-08-31T02:20:12.621Z,1.73
2022-08-31T02:25:16.205Z,1.80
2022-08-31T02:30:19.511Z,1.90
2022-08-31T02:35:21.605Z,2.00
2022-08-31T02:40:23.993Z,1.80
2022-08-31T02:45:26.649Z,1.90
2022-08-31T02:50:42.772Z,1.67
2022-08-31T02:55:44.871Z,1.80
2022-08-31T03:00:47.980Z,2.00
2022-08-31T03:05:51.498Z,1.65
2022-08-31T03:10:54.853Z,2.03
2022-08-31T03:15:57.529Z,2.20
2022-08-31T03:20:59.787Z,1.77
2022-08-31T03:26:02.909Z,1.92
2022-08-31T03:31:09.793Z,2.17
2022-08-31T03:36:12.022Z,2.05
2022-08-31T03:41:18.648Z,1.75
2022-08-31T03:46:21.030Z,1.95
2022-08-31T03:51:23.145Z,2.03
2022-08-31T03:56:25.223Z,2.00
2022-08-31T04:01:27.330Z,1.95
2022-08-31T04:06:47.924Z,1.70
2022-08-31T04:12:22.157Z,1.88
2022-08-31T04:17:44.772Z,2.00
2022-08-31T04:23:07.129Z,1.88
2022-08-31T04:28:11.284Z,1.52
2022-08-31T04:33:15.370Z,1.98
2022-08-31T04:38:17.757Z,1.67
2022-08-31T04:43:20.929Z,1.75
2022-08-31T04:48:26.250Z,1.60
2022-08-31T04:53:28.618Z,1.55
2022-08-31T04:58:30.765Z,1.48
2022-08-31T05:03:32.834Z,1.45
2022-08-31T05:08:34.987Z,1.60
2022-08-31T05:13:37.791Z,1.77
2022-08-31T05:18:41.998Z,1.92
2022-08-31T05:23:47.085Z,1.70
2022-08-31T05:28:49.269Z,1.77
2022-08-31T05:33:52.052Z,1.83
2022-08-31T05:39:03.961Z,1.70
2022-08-31T05:44:07.771Z,1.50
2022-08-31T05:49:11.646Z,1.42
2022-08-31T05:54:15.887Z,1.50
2022-08-31T05:59:18.148Z,1.45
2022-08-31T06:04:20.258Z,1.60
2022-08-31T06:09:22.580Z,1.58
2022-08-31T06:14:24.656Z,1.35
2022-08-31T06:19:29.243Z,1.60
2022-08-31T06:24:31.386Z,1.33
2022-08-31T06:29:33.753Z,1.58
2022-08-31T06:34:37.805Z,1.55
2022-08-31T06:39:40.080Z,1.40
2022-08-31T06:45:11.380Z,1.45
2022-08-31T06:50:17.795Z,1.58
2022-08-31T06:55:20.528Z,1.17
2022-08-31T07:00:25.251Z,1.40
2022-08-31T07:05:54.225Z,1.10
2022-08-31T07:10:56.421Z,1.63
2022-08-31T07:16:06.391Z,1.33
2022-08-31T07:21:14.392Z,1.20
2022-08-31T07:26:25.424Z,1.38
2022-08-31T07:31:40.153Z,1.50
2022-08-31T07:37:01.796Z,1.25
2022-08-31T07:42:10.465Z,1.25
2022-08-31T07:47:12.531Z,1.38
2022-08-31T07:52:16.174Z,1.30
2022-08-31T07:57:45.162Z,1.30
2022-08-31T08:02:53.142Z,1.40
2022-08-31T08:08:08.350Z,1.20
2022-08-31T08:13:33.113Z,1.13
2022-08-31T08:18:42.716Z,1.33
2022-08-31T08:23:45.806Z,1.58
2022-08-31T08:29:06.779Z,1.48
2022-08-31T08:34:13.244Z,1.30
2022-08-31T08:39:16.591Z,1.70
2022-08-31T08:44:33.003Z,1.30
2022-08-31T08:49:54.537Z,1.52
2022-08-31T08:55:08.475Z,1.67
2022-08-31T09:00:16.068Z,1.73
2022-08-31T09:05:42.709Z,1.42
2022-08-31T09:11:20.125Z,1.77
2022-08-31T09:16:53.368Z,1.20
2022-08-31T09:21:58.683Z,1.60
2022-08-31T09:27:18.673Z,1.50
2022-08-31T09:32:31.384Z,1.52
2022-08-31T09:37:46.250Z,1.50
2022-08-31T09:43:03.068Z,1.63
2022-08-31T09:48:08.023Z,1.50
2022-08-31T09:53:34.677Z,1.65
2022-08-31T09:58:36.755Z,1.45
2022-08-31T10:03:44.168Z,1.27
2022-08-31T10:08:56.961Z,1.40
2022-08-31T10:14:04.751Z,1.48
2022-08-31T10:19:11.746Z,1.30
2022-08-31T10:24:36.735Z,1.30
2022-08-31T10:29:56.752Z,1.35
2022-08-31T10:35:28.420Z,1.30
2022-08-31T10:40:34.797Z,1.42
2022-08-31T10:45:41.299Z,1.77
2022-08-31T10:50:52.385Z,1.73
2022-08-31T11:01:18.261Z,1.90
2022-08-31T11:06:42.013Z,1.80
2022-08-31T11:11:51.785Z,1.85
2022-08-31T11:17:35.404Z,1.90
2022-08-31T11:22:47.576Z,2.35
2022-08-31T11:28:00.344Z,1.80
2022-08-31T11:33:09.432Z,1.50
2022-08-31T11:38:52.584Z,1.60
2022-08-31T11:43:54.764Z,1.77
2022-08-31T11:48:59.054Z,1.70
2022-08-31T11:54:04.407Z,1.80
2022-08-31T11:59:20.365Z,1.67
2022-08-31T12:04:42.011Z,2.05
2022-08-31T12:10:15.259Z,1.85
2022-08-31T12:15:42.887Z,1.67
2022-08-31T12:21:12.372Z,1.95
2022-08-31T12:26:44.400Z,1.60
2022-08-31T12:32:18.301Z,1.40
2022-08-31T12:37:33.770Z,1.60
2022-08-31T12:42:41.020Z,1.70
2022-08-31T12:48:09.420Z,1.35
2022-08-31T12:53:42.762Z,1.50
2022-08-31T12:59:04.135Z,1.63
2022-08-31T13:04:06.243Z,1.80
2022-08-31T13:09:24.075Z,1.52
2022-08-31T13:14:30.901Z,1.60
2022-08-31T13:19:35.090Z,1.42
2022-08-31T13:24:42.795Z,1.50
2022-08-31T13:30:02.876Z,1.23
2022-08-31T13:35:10.191Z,1.40
2022-08-31T13:40:17.417Z,1.27
2022-08-31T13:45:26.430Z,1.42
2022-08-31T13:50:52.510Z,1.50
2022-08-31T13:55:57.542Z,1.23
2022-08-31T14:01:39.962Z,1.63
2022-08-31T14:06:50.804Z,1.20
2022-08-31T14:12:04.308Z,1.75
2022-08-31T14:17:13.361Z,1.90
2022-08-31T14:22:27.176Z,1.30
2022-08-31T14:27:29.546Z,1.30
2022-08-31T14:32:33.843Z,1.58
2022-08-31T14:37:36.044Z,1.40
2022-08-31T14:42:39.128Z,1.92
2022-08-31T14:47:43.732Z,1.20
2022-08-31T14:52:53.640Z,1.50
2022-08-31T14:58:05.064Z,1.63
2022-08-31T15:03:11.829Z,1.83
2022-08-31T15:08:37.845Z,1.75
2022-08-31T15:13:41.474Z,1.67
2022-08-31T15:18:43.668Z,1.60
2022-08-31T15:23:47.724Z,1.80
2022-08-31T15:28:52.432Z,1.58
2022-08-31T15:33:59.816Z,1.73
2022-08-31T15:39:04.027Z,2.22
2022-08-31T15:44:10.248Z,1.60
2022-08-31T15:49:12.459Z,1.08
2022-08-31T15:54:22.123Z,1.40
2022-08-31T15:59:25.125Z,1.23
2022-08-31T16:04:27.444Z,1.40
2022-08-31T16:09:29.504Z,1.40
2022-08-31T16:14:31.622Z,1.58
2022-08-31T16:19:36.156Z,1.42
2022-08-31T16:24:38.722Z,1.33
2022-08-31T16:29:40.900Z,1.42
2022-08-31T16:34:43.010Z,1.77
2022-08-31T16:39:47.049Z,1.73
2022-08-31T16:44:49.325Z,1.23
2022-08-31T16:49:51.578Z,1.45
2022-08-31T16:54:57.372Z,1.33
2022-08-31T17:00:04.475Z,1.40
2022-08-31T17:05:07.224Z,1.10
2022-08-31T17:10:09.593Z,1.30
2022-08-31T17:15:13.827Z,1.20
2022-08-31T17:20:16.371Z,1.30
2022-08-31T17:25:19.913Z,1.80
2022-08-31T17:30:23.114Z,1.20
2022-08-31T17:35:26.788Z,1.50
2022-08-31T17:40:29.000Z,1.33
2022-08-31T17:45:31.353Z,1.33
2022-08-31T17:50:33.438Z,1.50
2022-08-31T17:55:35.548Z,1.30
2022-08-31T18:00:37.571Z,1.27
2022-08-31T18:05:43.937Z,1.20
2022-08-31T18:10:52.141Z,1.27
2022-08-31T18:15:55.177Z,1.35
2022-08-31T18:20:59.129Z,1.23
2022-08-31T18:26:01.315Z,1.60
2022-08-31T18:31:09.208Z,1.30
2022-08-31T18:36:12.276Z,1.30
2022-08-31T18:41:32.701Z,1.33
2022-08-31T18:46:35.114Z,1.40
2022-08-31T18:51:37.708Z,1.42
2022-08-31T18:56:41.182Z,1.20
2022-08-31T19:01:44.067Z,1.50
2022-08-31T19:06:46.722Z,1.00
2022-08-31T19:11:51.764Z,1.38
2022-08-31T19:16:55.228Z,1.17
2022-08-31T19:22:06.216Z,1.10
2022-08-31T19:27:10.247Z,1.20
2022-08-31T19:32:13.739Z,1.40
2022-08-31T19:37:16.302Z,0.90
2022-08-31T19:42:19.176Z,1.10
2022-08-31T19:47:24.819Z,1.13
2022-08-31T19:52:27.039Z,1.00
2022-08-31T19:57:29.025Z,1.45
2022-08-31T20:02:31.148Z,1.10
2022-08-31T20:07:35.059Z,0.80
2022-08-31T20:12:39.461Z,1.13
2022-08-31T20:17:43.244Z,1.10
2022-08-31T20:22:46.396Z,0.90
2022-08-31T20:27:48.838Z,0.80
2022-08-31T20:32:52.757Z,0.90
2022-08-31T20:37:56.167Z,1.05
2022-08-31T20:42:58.266Z,0.98
2022-08-31T20:48:19.194Z,0.90
2022-08-31T20:53:24.907Z,0.90
2022-08-31T20:58:44.754Z,0.82
2022-08-31T21:03:46.823Z,0.90
2022-08-31T21:08:49.960Z,0.95
2022-08-31T21:13:55.489Z,1.00
2022-08-31T21:18:58.256Z,1.15
2022-08-31T21:24:00.291Z,1.05
2022-08-31T21:29:02.386Z,1.05
2022-08-31T21:34:04.493Z,0.90
2022-08-31T21:39:12.623Z,0.85
2022-08-31T21:44:18.352Z,0.85
2022-08-31T21:49:20.829Z,0.90
2022-08-31T21:54:28.681Z,0.90
2022-08-31T21:59:35.046Z,1.00
2022-08-31T22:04:42.659Z,0.98
2022-08-31T22:09:46.615Z,0.75
2022-08-31T22:14:50.583Z,0.90
2022-08-31T22:19:52.683Z,1.23
2022-08-31T22:24:55.203Z,1.10
2022-08-31T22:29:57.225Z,1.38
2022-08-31T22:34:59.402Z,1.10
2022-08-31T22:40:01.568Z,1.20
2022-08-31T22:45:04.088Z,1.30
2022-08-31T22:50:06.607Z,1.40
2022-08-31T22:55:09.100Z,1.10
2022-08-31T23:00:12.285Z,0.90
2022-08-31T23:05:16.179Z,1.33
2022-08-31T23:10:19.376Z,0.70
2022-08-31T23:15:22.152Z,0.90
2022-08-31T23:20:24.433Z,0.98
2022-08-31T23:25:26.609Z,1.20
2022-08-31T23:30:28.641Z,0.95
2022-08-31T23:35:30.670Z,1.15
2022-08-31T23:40:34.127Z,0.93
2022-08-31T23:45:37.857Z,0.85
2022-08-31T23:50:39.939Z,0.80
2022-08-31T23:55:45.224Z,0.80
